Time;durP1;ratioP1;P1;durP2;ratioP2;P2;SDS_P1;SDS_P2;PMS_P1;PMS_P2;Temp;Humidity;BMP_temperature;BMP_pressure;BME280_temperature;BME280_humidity;BME280_pressure;Samples;Min_cycle;Max_cycle;Signal;HPM_P1;HPM_P2
2023/07/25 00:02:08;;;;;;;0.65;0.57;;;22.50;99.90;;;;;;5127701;27;45176;-70
2023/07/25 00:04:35;;;;;;;3.20;0.50;;;22.50;99.90;;;;;;5128622;27;45047;-70
2023/07/25 00:07:02;;;;;;;1.25;0.60;;;22.50;99.90;;;;;;5113798;27;45308;-70
2023/07/25 00:09:29;;;;;;;0.85;0.57;;;22.50;99.90;;;;;;5107214;27;48629;-70
2023/07/25 00:11:55;;;;;;;1.45;0.75;;;22.50;99.90;;;;;;5107601;27;45054;-70
2023/07/25 00:14:22;;;;;;;0.82;0.47;;;22.40;99.90;;;;;;5108692;27;45098;-70
2023/07/25 00:16:50;;;;;;;2.58;0.50;;;22.40;99.90;;;;;;5123513;27;45530;-70
2023/07/25 00:19:17;;;;;;;1.02;0.70;;;22.40;99.90;;;;;;5130363;27;45480;-70
2023/07/25 00:21:44;;;;;;;2.05;0.70;;;22.40;99.90;;;;;;5121179;27;45074;-70
2023/07/25 00:24:11;;;;;;;0.93;0.60;;;22.40;99.90;;;;;;5106795;27;45168;-70
2023/07/25 00:26:37;;;;;;;2.30;0.70;;;22.50;99.90;;;;;;5107553;27;45226;-70
2023/07/25 00:29:04;;;;;;;2.55;0.60;;;22.50;99.90;;;;;;5109914;27;45161;-70
2023/07/25 00:31:31;;;;;;;3.75;0.98;;;22.50;99.90;;;;;;5109175;27;45308;-69
2023/07/25 00:33:59;;;;;;;2.75;0.60;;;22.50;99.90;;;;;;5104422;27;45202;-70
2023/07/25 00:36:26;;;;;;;1.70;0.55;;;22.50;99.90;;;;;;5104442;27;45091;-70
2023/07/25 00:38:53;;;;;;;3.78;0.70;;;22.40;99.90;;;;;;5106775;27;47991;-70
2023/07/25 00:41:20;;;;;;;1.45;0.80;;;22.50;99.90;;;;;;5112303;27;45139;-70
2023/07/25 00:43:47;;;;;;;1.23;0.60;;;22.50;99.90;;;;;;5106964;27;45326;-69
2023/07/25 00:46:13;;;;;;;1.08;0.77;;;22.50;99.90;;;;;;5107332;27;45302;-70
2023/07/25 00:48:40;;;;;;;1.98;0.70;;;22.50;99.90;;;;;;5109784;27;48360;-70
2023/07/25 00:51:08;;;;;;;1.67;0.88;;;22.50;99.90;;;;;;5102222;27;45562;-70
2023/07/25 00:53:35;;;;;;;1.98;0.60;;;22.50;99.90;;;;;;5106445;27;45248;-70
2023/07/25 00:56:02;;;;;;;1.38;0.63;;;22.50;99.90;;;;;;5106895;27;45252;-70
2023/07/25 00:58:29;;;;;;;0.98;0.50;;;22.50;99.90;;;;;;5106249;27;48355;-70
2023/07/25 01:01:03;;;;;;;2.45;0.60;;;22.50;99.90;;;;;;5113051;27;45314;-69
2023/07/25 01:03:30;;;;;;;1.25;0.70;;;22.50;99.90;;;;;;5105960;27;45224;-70
2023/07/25 01:06:00;;;;;;;4.18;0.80;;;22.50;99.90;;;;;;5095550;27;45286;-70
2023/07/25 01:08:29;;;;;;;2.90;0.65;;;22.40;99.90;;;;;;5115059;27;45189;-70
2023/07/25 01:10:56;;;;;;;0.60;0.40;;;22.40;99.90;;;;;;5105937;27;45677;-70
2023/07/25 01:13:23;;;;;;;1.83;0.80;;;22.50;99.90;;;;;;5103681;27;45176;-70
2023/07/25 01:15:50;;;;;;;1.00;0.60;;;22.50;99.90;;;;;;5124990;27;45275;-70
2023/07/25 01:18:17;;;;;;;1.83;0.60;;;22.50;99.90;;;;;;5118746;27;46431;-70
2023/07/25 01:20:46;;;;;;;1.42;0.80;;;22.50;99.90;;;;;;5109036;27;45116;-70
2023/07/25 01:23:14;;;;;;;0.50;0.50;;;22.50;99.90;;;;;;5110526;27;45096;-70
2023/07/25 01:25:42;;;;;;;3.83;0.80;;;22.50;99.90;;;;;;5114591;27;45440;-69
2023/07/25 01:28:09;;;;;;;2.00;0.80;;;22.40;99.90;;;;;;5114441;27;47290;-70
2023/07/25 01:30:35;;;;;;;2.83;0.73;;;22.50;99.90;;;;;;5117665;27;45176;-69
2023/07/25 01:33:02;;;;;;;1.33;0.90;;;22.40;99.90;;;;;;5126286;27;45050;-70
2023/07/25 01:35:29;;;;;;;1.05;0.60;;;22.40;99.90;;;;;;5124120;27;45291;-70
2023/07/25 01:37:56;;;;;;;1.20;0.65;;;22.40;99.90;;;;;;5121293;27;47484;-69
2023/07/25 01:40:22;;;;;;;1.75;0.70;;;22.50;99.90;;;;;;5111780;27;45065;-70
2023/07/25 01:42:51;;;;;;;5.00;1.00;;;22.40;99.90;;;;;;5103067;27;45201;-70
2023/07/25 01:45:17;;;;;;;0.80;0.70;;;22.40;99.90;;;;;;5119164;27;45383;-70
2023/07/25 01:47:44;;;;;;;1.75;0.73;;;22.50;99.90;;;;;;5123605;27;45189;-70
2023/07/25 01:50:11;;;;;;;3.17;0.77;;;22.40;99.90;;;;;;5125913;27;45117;-70
2023/07/25 01:52:38;;;;;;;1.65;0.82;;;22.50;99.90;;;;;;5106998;27;45344;-69
2023/07/25 01:55:05;;;;;;;1.02;0.60;;;22.50;99.90;;;;;;5102867;27;45263;-70
2023/07/25 01:57:32;;;;;;;1.40;0.90;;;22.40;99.90;;;;;;5109965;27;45139;-70
2023/07/25 02:00:00;;;;;;;2.45;0.85;;;22.40;99.90;;;;;;5104366;27;45228;-70
2023/07/25 02:02:27;;;;;;;3.47;0.80;;;22.40;99.90;;;;;;5104887;27;45039;-70
2023/07/25 02:04:54;;;;;;;0.93;0.60;;;22.40;99.90;;;;;;5111884;27;45105;-69
2023/07/25 02:07:20;;;;;;;0.77;0.60;;;22.40;99.90;;;;;;5108399;27;46055;-70
2023/07/25 02:09:47;;;;;;;3.33;0.80;;;22.40;99.90;;;;;;5105332;27;45282;-69
2023/07/25 02:12:14;;;;;;;1.90;1.00;;;22.40;99.90;;;;;;5103336;27;45093;-69
2023/07/25 02:14:41;;;;;;;1.67;0.95;;;22.40;99.90;;;;;;5108777;27;45571;-70
2023/07/25 02:17:09;;;;;;;1.17;0.73;;;22.40;99.90;;;;;;5120866;27;47315;-69
2023/07/25 02:19:36;;;;;;;2.42;0.93;;;22.40;99.90;;;;;;5129294;27;45121;-69
2023/07/25 02:22:02;;;;;;;1.60;0.77;;;22.40;99.90;;;;;;5123387;27;45137;-70
2023/07/25 02:24:29;;;;;;;0.70;0.70;;;22.40;99.90;;;;;;5103030;27;45190;-70
2023/07/25 02:26:56;;;;;;;0.50;0.50;;;22.40;99.90;;;;;;5106913;27;45243;-69
2023/07/25 02:29:23;;;;;;;2.35;0.70;;;22.40;99.90;;;;;;5105491;27;45130;-70
2023/07/25 02:31:49;;;;;;;1.88;1.00;;;22.40;99.90;;;;;;5107742;27;45156;-70
2023/07/25 02:34:18;;;;;;;1.33;0.65;;;22.40;99.90;;;;;;5111257;27;45045;-69
2023/07/25 02:36:44;;;;;;;2.20;0.70;;;22.40;99.90;;;;;;5122005;27;49155;-70
2023/07/25 02:39:12;;;;;;;2.75;0.93;;;22.40;99.90;;;;;;5129031;27;45089;-70
2023/07/25 02:41:38;;;;;;;3.70;0.80;;;22.40;99.90;;;;;;5122857;27;45192;-70
2023/07/25 02:44:06;;;;;;;1.17;0.77;;;22.40;99.90;;;;;;5106334;27;45034;-70
2023/07/25 02:46:32;;;;;;;3.20;0.80;;;22.40;99.90;;;;;;5107510;27;45166;-70
2023/07/25 02:48:58;;;;;;;1.88;0.90;;;22.40;99.90;;;;;;5096962;27;45184;-70
2023/07/25 02:51:26;;;;;;;3.60;0.95;;;22.40;99.90;;;;;;5118455;27;45270;-69
2023/07/25 02:53:53;;;;;;;1.10;0.70;;;22.40;99.90;;;;;;5122564;27;45315;-70
2023/07/25 02:56:21;;;;;;;0.88;0.70;;;22.40;99.90;;;;;;5105302;27;46212;-70
2023/07/25 02:58:48;;;;;;;2.97;0.90;;;22.40;99.90;;;;;;5105190;27;45293;-69
2023/07/25 03:01:15;;;;;;;1.10;0.65;;;22.40;99.90;;;;;;5100915;27;45231;-70
2023/07/25 03:03:42;;;;;;;0.82;0.70;;;22.40;99.90;;;;;;5104678;27;45373;-70
2023/07/25 03:06:10;;;;;;;2.60;0.80;;;22.40;99.90;;;;;;5110123;27;46654;-70
2023/07/25 03:08:38;;;;;;;1.55;0.70;;;22.40;99.90;;;;;;5116311;27;45721;-70
2023/07/25 03:11:05;;;;;;;2.20;0.80;;;22.40;99.90;;;;;;5105571;27;45157;-69
2023/07/25 03:13:32;;;;;;;2.47;0.73;;;22.40;99.90;;;;;;5113990;27;45242;-69
2023/07/25 03:15:58;;;;;;;1.88;0.70;;;22.40;99.90;;;;;;5104699;27;45293;-70
2023/07/25 03:18:25;;;;;;;1.50;0.85;;;22.40;99.90;;;;;;5116849;27;45091;-70
2023/07/25 03:20:52;;;;;;;0.93;0.70;;;22.40;99.90;;;;;;5121940;27;45199;-70
2023/07/25 03:23:19;;;;;;;1.02;0.80;;;22.40;99.90;;;;;;5104181;27;45303;-70
2023/07/25 03:25:47;;;;;;;1.55;0.70;;;22.40;99.90;;;;;;5107105;27;47348;-70
2023/07/25 03:28:14;;;;;;;2.45;0.90;;;22.40;99.90;;;;;;5125862;27;45135;-69
2023/07/25 03:30:41;;;;;;;0.68;0.65;;;22.40;99.90;;;;;;5115721;27;45278;-70
2023/07/25 03:33:08;;;;;;;2.40;0.73;;;22.40;99.90;;;;;;5107306;27;45099;-70
2023/07/25 03:35:35;;;;;;;1.17;0.68;;;22.40;99.90;;;;;;5112415;27;47996;-70
2023/07/25 03:38:01;;;;;;;2.80;1.00;;;22.40;99.90;;;;;;5104489;27;45993;-69
2023/07/25 03:40:28;;;;;;;0.93;0.73;;;22.40;99.90;;;;;;5115256;27;45294;-70
2023/07/25 03:42:56;;;;;;;2.35;0.90;;;22.40;99.90;;;;;;5107068;27;45308;-69
2023/07/25 03:45:23;;;;;;;2.38;0.90;;;22.40;99.70;;;;;;5106770;27;48344;-69
2023/07/25 03:47:50;;;;;;;3.13;1.25;;;22.40;99.90;;;;;;5120548;27;45063;-70
2023/07/25 03:50:17;;;;;;;2.25;0.98;;;22.40;99.90;;;;;;5109502;27;45196;-69
2023/07/25 03:52:43;;;;;;;3.13;0.90;;;22.40;99.90;;;;;;5105035;27;45330;-70
2023/07/25 03:55:10;;;;;;;2.53;1.15;;;22.40;99.90;;;;;;5109494;27;46670;-70
2023/07/25 03:57:37;;;;;;;1.50;1.00;;;22.40;99.90;;;;;;5104220;27;45130;-70
2023/07/25 04:00:06;;;;;;;2.00;0.93;;;22.40;99.90;;;;;;5111339;27;45192;-70
2023/07/25 04:02:33;;;;;;;4.32;1.20;;;22.40;99.90;;;;;;5110618;27;45307;-70
2023/07/25 04:05:00;;;;;;;3.88;1.15;;;22.40;99.90;;;;;;5116461;27;47978;-70
2023/07/25 04:07:27;;;;;;;2.80;0.90;;;22.40;99.90;;;;;;5124856;27;45079;-70
2023/07/25 04:09:53;;;;;;;1.45;0.85;;;22.40;99.90;;;;;;5109990;27;45186;-70
2023/07/25 04:12:20;;;;;;;2.10;1.00;;;22.40;99.90;;;;;;5112931;27;45354;-70
2023/07/25 04:14:47;;;;;;;0.80;0.70;;;22.40;99.90;;;;;;5104257;27;45204;-70
2023/07/25 04:17:15;;;;;;;1.73;0.90;;;22.40;99.90;;;;;;5106890;27;45255;-69
2023/07/25 04:19:42;;;;;;;2.40;0.90;;;22.40;99.90;;;;;;5116567;27;45066;-70
2023/07/25 04:22:09;;;;;;;2.60;1.00;;;22.40;99.70;;;;;;5104385;27;45283;-70
2023/07/25 04:24:35;;;;;;;1.98;0.80;;;22.40;99.60;;;;;;5093683;27;47610;-70
2023/07/25 04:27:02;;;;;;;4.07;1.20;;;22.40;99.90;;;;;;5120507;27;45169;-70
2023/07/25 04:29:29;;;;;;;1.73;1.15;;;22.40;99.80;;;;;;5115331;27;45108;-70
2023/07/25 04:31:56;;;;;;;2.47;0.75;;;22.40;99.80;;;;;;5105217;27;45025;-70
2023/07/25 04:34:24;;;;;;;1.60;0.80;;;22.40;99.90;;;;;;5111742;27;46549;-69
2023/07/25 04:36:50;;;;;;;1.55;0.70;;;22.40;99.90;;;;;;5104281;27;45127;-68
2023/07/25 04:39:18;;;;;;;2.30;0.90;;;22.30;99.70;;;;;;5107632;27;45286;-70
2023/07/25 04:41:45;;;;;;;1.88;1.05;;;22.30;99.30;;;;;;5111901;27;45391;-69
2023/07/25 04:44:12;;;;;;;1.20;0.70;;;22.30;99.00;;;;;;5105266;27;46046;-70
2023/07/25 04:46:38;;;;;;;1.55;0.93;;;22.30;98.70;;;;;;5108967;27;45971;-70
2023/07/25 04:49:06;;;;;;;1.90;0.95;;;22.30;98.40;;;;;;5107704;27;45368;-69
2023/07/25 04:51:34;;;;;;;1.52;1.15;;;22.30;98.40;;;;;;5108160;27;45235;-69
2023/07/25 04:54:01;;;;;;;3.80;1.27;;;22.30;98.20;;;;;;5104066;27;45240;-69
2023/07/25 04:56:28;;;;;;;3.22;1.02;;;22.30;97.90;;;;;;5103986;27;45419;-69
2023/07/25 04:58:55;;;;;;;2.00;0.70;;;22.30;97.20;;;;;;5105430;27;45190;-69
2023/07/25 05:01:21;;;;;;;3.83;0.93;;;22.30;97.80;;;;;;5103032;27;45263;-69
2023/07/25 05:03:48;;;;;;;2.05;1.17;;;22.30;97.60;;;;;;5103581;27;46482;-69
2023/07/25 05:06:15;;;;;;;1.80;1.00;;;22.30;97.90;;;;;;5103762;27;45211;-70
2023/07/25 05:08:43;;;;;;;2.70;0.75;;;22.40;98.10;;;;;;5104387;27;45268;-70
2023/07/25 05:11:11;;;;;;;3.40;1.40;;;22.30;98.10;;;;;;5104278;27;45142;-69
2023/07/25 05:13:37;;;;;;;3.28;1.10;;;22.30;98.20;;;;;;5104602;27;46341;-70
2023/07/25 05:16:05;;;;;;;2.35;1.15;;;22.40;98.30;;;;;;5111195;27;45189;-70
2023/07/25 05:18:31;;;;;;;0.90;0.80;;;22.30;98.30;;;;;;5108278;27;45137;-70
2023/07/25 05:20:59;;;;;;;2.15;1.10;;;22.40;98.10;;;;;;5115590;27;45251;-69
2023/07/25 05:23:25;;;;;;;5.20;1.00;;;22.30;98.20;;;;;;5107992;27;46202;-69
2023/07/25 05:25:53;;;;;;;3.47;1.40;;;22.30;98.20;;;;;;5116577;27;45180;-69
2023/07/25 05:28:20;;;;;;;3.13;1.30;;;22.30;98.20;;;;;;5104904;27;45092;-70
2023/07/25 05:30:47;;;;;;;2.08;1.10;;;22.30;98.20;;;;;;5111919;27;45315;-70
2023/07/25 05:33:14;;;;;;;3.15;0.90;;;22.40;98.30;;;;;;5126270;27;45351;-69
2023/07/25 05:35:41;;;;;;;3.25;1.20;;;22.40;98.30;;;;;;5113997;27;45145;-69
2023/07/25 05:38:08;;;;;;;2.83;1.17;;;22.30;98.30;;;;;;5105103;27;45083;-70
2023/07/25 05:40:35;;;;;;;1.33;0.77;;;22.40;98.30;;;;;;5105026;27;45411;-69
2023/07/25 05:43:03;;;;;;;2.03;1.02;;;22.40;98.20;;;;;;5104541;27;46328;-69
2023/07/25 05:45:30;;;;;;;2.75;1.08;;;22.40;98.20;;;;;;5104783;27;45191;-69
2023/07/25 05:47:57;;;;;;;2.85;1.20;;;22.40;98.20;;;;;;5107025;27;45117;-70
2023/07/25 05:50:23;;;;;;;1.95;0.98;;;22.40;98.10;;;;;;5108463;27;45373;-69
2023/07/25 05:52:50;;;;;;;4.68;1.00;;;22.40;98.20;;;;;;5108244;27;47017;-69
2023/07/25 05:55:17;;;;;;;2.25;1.33;;;22.40;98.10;;;;;;5108315;27;45222;-70
2023/07/25 05:57:44;;;;;;;1.90;1.13;;;22.40;98.10;;;;;;5108319;27;45122;-69
2023/07/25 06:00:13;;;;;;;3.22;1.13;;;22.40;98.00;;;;;;5108281;27;45422;-69
2023/07/25 06:02:40;;;;;;;1.73;1.08;;;22.40;98.10;;;;;;5107839;27;46203;-70
2023/07/25 06:05:07;;;;;;;1.50;1.00;;;22.40;98.00;;;;;;5117410;27;45278;-69
2023/07/25 06:07:34;;;;;;;2.55;1.00;;;22.40;98.00;;;;;;5108327;27;45399;-70
2023/07/25 06:10:01;;;;;;;0.88;0.80;;;22.40;97.90;;;;;;5120957;27;45333;-70
2023/07/25 06:12:28;;;;;;;2.45;1.40;;;22.40;97.80;;;;;;5112053;27;48207;-70
2023/07/25 06:14:54;;;;;;;2.80;1.25;;;22.40;97.90;;;;;;5108858;27;45205;-70
2023/07/25 06:17:23;;;;;;;4.30;0.88;;;22.40;97.90;;;;;;5115585;27;45148;-70
2023/07/25 06:19:50;;;;;;;2.33;1.08;;;22.40;98.00;;;;;;5121028;27;45595;-70
2023/07/25 06:22:16;;;;;;;2.60;1.10;;;22.40;98.30;;;;;;5111836;27;46966;-70
2023/07/25 06:24:43;;;;;;;1.92;0.93;;;22.40;98.00;;;;;;5109613;27;45129;-70
2023/07/25 06:27:10;;;;;;;1.30;0.77;;;22.40;98.00;;;;;;5113919;27;45156;-69
2023/07/25 06:29:37;;;;;;;2.53;1.00;;;22.40;98.00;;;;;;5104893;27;45379;-69
2023/07/25 06:32:04;;;;;;;2.78;0.90;;;22.40;98.00;;;;;;5104475;27;48674;-69
2023/07/25 06:34:32;;;;;;;2.80;0.80;;;22.40;98.00;;;;;;5106734;27;45119;-69
2023/07/25 06:36:59;;;;;;;2.63;1.00;;;22.40;98.00;;;;;;5107421;27;45106;-70
2023/07/25 06:39:26;;;;;;;2.55;0.85;;;22.40;98.00;;;;;;5107197;27;45091;-70
2023/07/25 06:41:52;;;;;;;1.60;0.65;;;22.40;97.90;;;;;;5108136;27;46261;-70
2023/07/25 06:44:20;;;;;;;3.60;1.02;;;22.40;97.90;;;;;;5109616;27;45169;-69
2023/07/25 06:46:47;;;;;;;2.75;1.10;;;22.40;97.80;;;;;;5107523;27;45279;-70
2023/07/25 06:49:13;;;;;;;3.90;1.13;;;22.40;97.80;;;;;;5112943;27;45078;-70
2023/07/25 06:51:41;;;;;;;3.65;1.10;;;22.40;97.80;;;;;;5109270;27;47643;-70
2023/07/25 06:54:08;;;;;;;1.48;1.17;;;22.40;97.60;;;;;;5107475;27;45108;-70
2023/07/25 06:56:35;;;;;;;2.38;0.73;;;22.40;97.80;;;;;;5116072;27;45135;-70
2023/07/25 06:59:02;;;;;;;1.33;0.77;;;22.40;97.80;;;;;;5095876;27;45146;-70
2023/07/25 07:01:29;;;;;;;3.00;0.82;;;22.40;97.90;;;;;;5105296;27;47673;-71
2023/07/25 07:03:55;;;;;;;3.60;0.90;;;22.40;97.80;;;;;;5106175;27;45247;-70
2023/07/25 07:06:22;;;;;;;1.63;1.05;;;22.40;97.70;;;;;;5106217;27;45204;-70
2023/07/25 07:08:51;;;;;;;1.20;0.63;;;22.40;97.70;;;;;;5115018;27;45314;-70
2023/07/25 07:11:18;;;;;;;3.13;0.93;;;22.40;97.70;;;;;;5120269;27;45141;-70
2023/07/25 07:13:45;;;;;;;3.53;0.88;;;22.40;97.40;;;;;;5107303;27;45229;-70
2023/07/25 07:16:11;;;;;;;2.60;0.60;;;22.40;97.50;;;;;;5111237;27;45155;-70
2023/07/25 07:18:38;;;;;;;2.75;0.88;;;22.40;97.50;;;;;;5115533;27;45110;-70
2023/07/25 07:21:06;;;;;;;2.20;0.77;;;22.40;97.40;;;;;;5108998;27;47955;-70
2023/07/25 07:23:34;;;;;;;1.67;0.80;;;22.40;97.40;;;;;;5109375;27;45313;-70
2023/07/25 07:26:02;;;;;;;1.48;0.95;;;22.40;97.30;;;;;;5114036;27;45314;-70
2023/07/25 07:28:29;;;;;;;1.58;0.80;;;22.40;97.20;;;;;;5106158;27;45123;-70
2023/07/25 07:30:56;;;;;;;2.25;0.70;;;22.40;97.30;;;;;;5106446;27;46250;-70
2023/07/25 07:33:25;;;;;;;1.73;0.70;;;22.40;97.30;;;;;;5106807;27;45215;-70
2023/07/25 07:35:51;;;;;;;1.25;0.68;;;22.40;97.20;;;;;;5104801;27;45036;-70
2023/07/25 07:38:18;;;;;;;2.42;0.60;;;22.40;97.00;;;;;;5114783;27;45268;-70
2023/07/25 07:40:45;;;;;;;2.40;0.90;;;22.40;97.00;;;;;;5113140;27;46062;-70
2023/07/25 07:43:15;;;;;;;3.97;0.80;;;22.40;97.00;;;;;;5105025;27;45191;-70
2023/07/25 07:45:42;;;;;;;1.88;0.80;;;22.40;96.90;;;;;;5117806;27;45233;-70
2023/07/25 07:48:08;;;;;;;2.58;0.73;;;22.40;96.90;;;;;;5106860;27;45423;-70
2023/07/25 07:50:35;;;;;;;2.17;0.90;;;22.40;96.90;;;;;;5105774;27;45256;-70
2023/07/25 07:53:03;;;;;;;0.90;0.55;;;22.40;97.20;;;;;;5116381;27;45215;-70
2023/07/25 07:55:30;;;;;;;1.02;0.70;;;22.40;97.20;;;;;;5118005;27;45149;-71
2023/07/25 07:57:57;;;;;;;1.55;0.73;;;22.40;97.10;;;;;;5112297;27;45106;-70
2023/07/25 08:00:25;;;;;;;1.20;0.60;;;22.40;97.10;;;;;;5105597;27;46301;-70
2023/07/25 08:02:52;;;;;;;2.45;0.82;;;22.40;97.10;;;;;;5106125;27;45187;-70
2023/07/25 08:05:19;;;;;;;2.60;0.80;;;22.40;97.10;;;;;;5106650;27;45161;-70
2023/07/25 08:07:46;;;;;;;1.20;0.60;;;22.40;97.30;;;;;;5106378;27;45406;-70
2023/07/25 08:10:13;;;;;;;1.70;0.70;;;22.40;97.00;;;;;;5110361;27;47316;-70
2023/07/25 08:12:40;;;;;;;5.03;0.90;;;22.40;97.00;;;;;;5113598;27;45124;-70
2023/07/25 08:15:08;;;;;;;2.28;0.65;;;22.40;97.00;;;;;;5118830;27;45334;-70
2023/07/25 08:17:36;;;;;;;2.15;0.80;;;22.40;96.90;;;;;;5106269;27;45146;-70
2023/07/25 08:20:03;;;;;;;2.08;0.80;;;22.40;96.90;;;;;;5108420;27;45232;-70
2023/07/25 08:22:31;;;;;;;3.03;0.60;;;22.40;96.90;;;;;;5105729;27;45103;-70
2023/07/25 08:24:58;;;;;;;2.58;0.95;;;22.40;96.90;;;;;;5108603;27;45263;-70
2023/07/25 08:27:25;;;;;;;1.45;0.73;;;22.40;96.90;;;;;;5110375;27;45471;-70
2023/07/25 08:29:52;;;;;;;1.80;0.70;;;22.40;96.90;;;;;;5110828;27;47045;-70
2023/07/25 08:32:19;;;;;;;2.50;0.80;;;22.40;96.90;;;;;;5112609;27;45319;-70
2023/07/25 08:34:47;;;;;;;3.38;1.02;;;22.40;96.70;;;;;;5106575;27;45093;-70
2023/07/25 08:37:13;;;;;;;4.35;0.88;;;22.40;96.70;;;;;;5112226;27;45278;-70
2023/07/25 08:39:40;;;;;;;2.92;0.80;;;22.40;96.70;;;;;;5104498;27;45450;-70
2023/07/25 08:42:07;;;;;;;2.33;0.80;;;22.40;96.60;;;;;;5098773;27;45574;-70
2023/07/25 08:44:36;;;;;;;1.95;0.80;;;22.40;96.70;;;;;;5114020;27;45204;-70
2023/07/25 08:47:06;;;;;;;2.30;0.80;;;22.40;96.60;;;;;;5106361;27;45209;-70
2023/07/25 08:49:36;;;;;;;1.30;0.50;;;22.40;96.50;;;;;;5108967;27;46257;-70
2023/07/25 08:52:08;;;;;;;4.07;1.27;;;22.40;96.50;;;;;;5108674;27;45120;-70
2023/07/25 08:54:36;;;;;;;1.77;0.85;;;22.40;96.50;;;;;;5106801;27;45159;-70
2023/07/25 08:57:04;;;;;;;2.97;1.00;;;22.40;96.50;;;;;;5103892;27;45226;-68
2023/07/25 08:59:31;;;;;;;5.88;1.08;;;22.40;96.40;;;;;;5111101;27;46722;-68
2023/07/25 09:01:59;;;;;;;5.80;1.02;;;22.40;96.50;;;;;;5097795;27;45140;-68
2023/07/25 09:04:27;;;;;;;5.15;1.17;;;22.40;96.60;;;;;;5103697;27;45096;-68
2023/07/25 09:06:54;;;;;;;7.32;1.40;;;22.30;96.50;;;;;;5105155;27;45400;-68
2023/07/25 09:09:23;;;;;;;6.43;1.00;;;22.30;96.50;;;;;;5104706;27;47191;-68
2023/07/25 09:11:51;;;;;;;2.35;1.00;;;22.30;96.50;;;;;;5107289;27;45087;-68
2023/07/25 09:14:18;;;;;;;3.92;1.17;;;22.30;96.40;;;;;;5105872;27;45206;-68
2023/07/25 09:16:45;;;;;;;4.57;0.90;;;22.30;96.20;;;;;;5110745;27;45116;-68
2023/07/25 09:19:12;;;;;;;2.25;0.47;;;22.30;96.20;;;;;;5108572;27;46217;-68
2023/07/25 09:21:49;;;;;;;2.72;0.70;;;22.30;96.20;;;;;;5100618;27;45190;-68
2023/07/25 09:24:16;;;;;;;2.30;0.73;;;22.30;96.10;;;;;;5105153;27;45181;-68
2023/07/25 09:26:50;;;;;;;1.90;0.77;;;22.30;96.30;;;;;;5105567;27;45297;-68
2023/07/25 09:29:18;;;;;;;2.08;0.90;;;22.30;96.10;;;;;;5110017;27;47046;-68
2023/07/25 09:31:46;;;;;;;2.67;0.85;;;22.30;96.10;;;;;;5104337;27;45308;-68
2023/07/25 09:34:16;;;;;;;3.90;1.02;;;22.30;96.10;;;;;;5110073;27;45421;-68
2023/07/25 09:36:47;;;;;;;2.15;1.00;;;22.30;96.00;;;;;;5112111;27;45163;-68
2023/07/25 09:39:15;;;;;;;2.92;0.82;;;22.30;95.80;;;;;;5104467;27;45457;-68
2023/07/25 09:41:42;;;;;;;2.25;0.88;;;22.30;95.80;;;;;;5107443;27;45106;-68
2023/07/25 09:44:10;;;;;;;1.85;0.70;;;22.30;95.80;;;;;;5105966;27;45368;-69
2023/07/25 09:46:37;;;;;;;2.47;0.80;;;22.30;95.60;;;;;;5101279;27;45293;-68
2023/07/25 09:49:04;;;;;;;0.95;0.68;;;22.30;95.60;;;;;;5100983;27;46397;-67
2023/07/25 09:51:31;;;;;;;2.95;0.70;;;22.30;95.20;;;;;;5106838;27;45082;-68
2023/07/25 09:53:58;;;;;;;1.70;0.90;;;22.40;95.40;;;;;;5093296;27;45269;-67
2023/07/25 09:56:26;;;;;;;3.15;0.93;;;22.30;95.40;;;;;;5110295;27;45138;-68
2023/07/25 09:58:54;;;;;;;3.03;0.80;;;22.40;95.40;;;;;;5103658;27;46547;-68
2023/07/25 10:01:22;;;;;;;0.65;0.60;;;22.40;95.30;;;;;;5103236;27;45289;-68
2023/07/25 10:03:49;;;;;;;2.10;0.73;;;22.40;94.90;;;;;;5104275;27;45185;-68
2023/07/25 10:06:17;;;;;;;1.13;0.60;;;22.40;95.10;;;;;;5109116;27;45209;-68
2023/07/25 10:08:44;;;;;;;1.10;0.70;;;22.40;95.00;;;;;;5102588;27;46289;-68
2023/07/25 10:11:13;;;;;;;1.52;0.73;;;22.40;94.90;;;;;;5105301;27;45306;-68
2023/07/25 10:13:41;;;;;;;1.90;0.82;;;22.40;94.90;;;;;;5106608;27;45216;-68
2023/07/25 10:16:10;;;;;;;1.85;0.70;;;22.40;94.90;;;;;;5105309;27;45152;-68
2023/07/25 10:18:38;;;;;;;2.75;0.77;;;22.40;94.90;;;;;;5103812;27;45377;-67
2023/07/25 10:21:05;;;;;;;4.18;0.70;;;22.40;94.70;;;;;;5109202;27;45199;-67
2023/07/25 10:23:34;;;;;;;1.73;0.85;;;22.40;94.40;;;;;;5102425;27;45094;-68
2023/07/25 10:26:11;;;;;;;1.35;0.70;;;22.40;94.40;;;;;;5101338;27;45267;-68
2023/07/25 10:28:38;;;;;;;1.85;0.75;;;22.40;94.30;;;;;;5102838;27;45256;-68
2023/07/25 10:31:06;;;;;;;4.60;0.80;;;22.40;94.60;;;;;;5102476;27;45236;-68
2023/07/25 10:33:38;;;;;;;1.55;0.90;;;22.40;94.40;;;;;;5097792;27;45255;-69
2023/07/25 10:36:06;;;;;;;4.40;0.98;;;22.40;94.10;;;;;;5097768;27;45152;-68
2023/07/25 10:38:35;;;;;;;2.63;0.90;;;22.40;94.40;;;;;;5100776;27;47563;-69
2023/07/25 10:41:11;;;;;;;3.60;0.90;;;22.40;94.60;;;;;;5107708;27;45306;-68
2023/07/25 10:44:00;;;;;;;3.15;0.70;;;22.40;94.60;;;;;;5110030;27;45102;-68
2023/07/25 10:46:28;;;;;;;4.90;0.90;;;22.40;94.80;;;;;;5112453;27;45351;-68
2023/07/25 10:48:59;;;;;;;2.53;0.80;;;22.40;94.30;;;;;;5107092;27;47169;-69
2023/07/25 10:51:47;;;;;;;0.75;0.52;;;22.50;94.40;;;;;;5109230;27;45357;-68
2023/07/25 10:54:16;;;;;;;1.98;0.90;;;22.50;94.10;;;;;;5104989;27;45118;-68
2023/07/25 10:57:14;;;;;;;1.00;0.63;;;22.50;94.20;;;;;;5118548;27;45351;-69
2023/07/25 10:59:59;;;;;;;2.42;0.85;;;22.50;94.00;;;;;;5110850;27;46369;-67
2023/07/25 11:02:30;;;;;;;1.85;0.75;;;22.50;94.00;;;;;;5101132;27;45170;-67
2023/07/25 11:05:25;;;;;;;1.52;0.70;;;22.60;94.20;;;;;;5108666;27;45117;-68
2023/07/25 11:07:55;;;;;;;1.50;0.68;;;22.60;93.90;;;;;;5103366;27;45089;-68
2023/07/25 11:10:23;;;;;;;1.30;0.68;;;22.60;94.20;;;;;;5104566;27;46445;-68
2023/07/25 11:12:51;;;;;;;1.75;0.85;;;22.60;94.10;;;;;;5106165;27;45138;-69
2023/07/25 11:15:18;;;;;;;1.52;0.70;;;22.60;94.10;;;;;;5105874;27;45308;-68
2023/07/25 11:17:45;;;;;;;1.02;0.60;;;22.70;93.80;;;;;;5106450;27;45403;-68
2023/07/25 11:20:13;;;;;;;2.40;0.57;;;22.70;93.90;;;;;;5103349;27;47138;-68
2023/07/25 11:22:42;;;;;;;2.30;0.88;;;22.60;93.50;;;;;;5090144;27;45681;-68
2023/07/25 11:25:09;;;;;;;1.15;0.50;;;22.70;93.50;;;;;;5091790;27;45228;-69
2023/07/25 11:27:40;;;;;;;2.58;0.88;;;22.70;93.20;;;;;;5101728;27;45186;-69
2023/07/25 11:30:11;;;;;;;1.40;0.90;;;22.70;93.20;;;;;;5111998;27;47238;-68
2023/07/25 11:32:38;;;;;;;1.92;0.70;;;22.70;93.00;;;;;;5110034;27;45120;-69
2023/07/25 11:35:05;;;;;;;2.58;0.90;;;22.70;92.90;;;;;;5115548;27;45168;-68
2023/07/25 11:37:33;;;;;;;1.48;0.60;;;22.70;92.90;;;;;;5106102;27;45188;-68
2023/07/25 11:40:12;;;;;;;1.77;0.77;;;22.70;92.70;;;;;;5112931;27;46486;-69
2023/07/25 11:42:40;;;;;;;1.98;0.65;;;22.70;92.60;;;;;;5088084;27;46400;-68
2023/07/25 11:45:09;;;;;;;2.47;1.00;;;22.70;92.80;;;;;;5121238;27;45364;-69
2023/07/25 11:47:36;;;;;;;2.03;0.82;;;22.70;93.00;;;;;;5120361;27;45163;-68
2023/07/25 11:50:04;;;;;;;1.77;0.73;;;22.70;92.90;;;;;;5114597;27;45239;-69
2023/07/25 11:52:33;;;;;;;1.83;0.82;;;22.70;93.10;;;;;;5109633;27;45281;-68
2023/07/25 11:55:00;;;;;;;2.80;0.93;;;22.70;93.00;;;;;;5105872;27;45130;-68
2023/07/25 11:57:28;;;;;;;1.42;0.68;;;22.70;93.10;;;;;;5107797;27;45244;-68
2023/07/25 11:59:56;;;;;;;2.35;0.70;;;22.70;93.10;;;;;;5096748;27;46351;-68
2023/07/25 12:02:24;;;;;;;1.88;1.00;;;22.60;93.00;;;;;;5095633;27;45770;-69
2023/07/25 12:04:52;;;;;;;1.75;0.65;;;22.60;93.00;;;;;;5099459;27;45393;-68
2023/07/25 12:07:19;;;;;;;2.88;0.70;;;22.60;93.20;;;;;;5103662;27;45226;-68
2023/07/25 12:09:52;;;;;;;2.70;0.60;;;22.60;93.20;;;;;;5103790;27;47664;-69
2023/07/25 12:12:20;;;;;;;1.95;0.73;;;22.60;93.20;;;;;;5104279;27;45180;-69
2023/07/25 12:15:01;;;;;;;2.35;0.70;;;22.60;93.30;;;;;;5112215;27;45397;-69
2023/07/25 12:17:44;;;;;;;1.73;0.75;;;22.60;93.10;;;;;;5104359;27;45162;-69
2023/07/25 12:20:18;;;;;;;1.10;0.57;;;22.60;93.10;;;;;;5102950;27;46061;-68
2023/07/25 12:22:45;;;;;;;1.48;0.73;;;22.60;93.10;;;;;;5114984;27;45204;-69
2023/07/25 12:25:16;;;;;;;1.83;0.50;;;22.60;93.20;;;;;;5117094;27;45263;-69
2023/07/25 12:27:46;;;;;;;2.35;0.75;;;22.60;93.30;;;;;;5116649;27;45390;-69
2023/07/25 12:30:14;;;;;;;1.38;0.70;;;22.60;93.20;;;;;;5105449;27;47260;-69
2023/07/25 12:32:41;;;;;;;1.00;0.60;;;22.60;93.00;;;;;;5106025;27;45259;-68
2023/07/25 12:35:11;;;;;;;1.50;0.68;;;22.60;93.20;;;;;;5106044;27;45097;-68
2023/07/25 12:37:38;;;;;;;1.40;0.50;;;22.60;93.00;;;;;;5105521;27;45533;-68
2023/07/25 12:40:06;;;;;;;2.45;0.65;;;22.60;93.00;;;;;;5113006;27;46208;-68
2023/07/25 12:42:33;;;;;;;1.25;0.55;;;22.60;93.00;;;;;;5105621;27;45213;-68
2023/07/25 12:45:05;;;;;;;1.83;0.70;;;22.50;92.90;;;;;;5104963;27;45168;-69
2023/07/25 12:47:34;;;;;;;0.57;0.40;;;22.60;92.90;;;;;;5109297;27;45407;-68
2023/07/25 12:50:01;;;;;;;2.30;0.65;;;22.50;92.80;;;;;;5104781;27;46490;-68
2023/07/25 12:52:27;;;;;;;1.35;0.60;;;22.50;92.80;;;;;;5105162;27;45232;-69